This is the latest recevied weather packets stored in our database for station/object N0THY. If no packets are shown the sender has not sent any weather packets the latest 10 day(s).
| Time | Temp. | Humidity | Pressure | Rain* | Wind** | Luminosity | Snow |
|---|---|---|---|---|---|---|---|
| 1777892050 | 8.33° C | 49% | 1013.9 hPa | 0 mm | - | - | - |
| 1777891147 | 8.33° C | 49% | 1013.7 hPa | 0 mm | - | - | - |
| 1777890245 | 8.33° C | 47% | 1013.7 hPa | 0 mm | - | - | - |
| 1777889342 | 8.33° C | 47% | 1013.3 hPa | 0 mm | - | - | - |
| 1777888439 | 8.89° C | 46% | 1013.1 hPa | 0 mm | - | - | - |
| 1777887536 | 8.89° C | 47% | 1013.1 hPa | 0 mm | - | - | - |
| 1777886633 | 8.89° C | 47% | 1013.1 hPa | 0 mm | - | - | - |
| 1777885730 | 8.89° C | 45% | 1013.1 hPa | 0 mm | - | - | - |
| 1777884827 | 8.89° C | 45% | 1013 hPa | 0 mm | - | - | - |
| 1777883924 | 8.89° C | 46% | 1013 hPa | 0 mm | - | - | - |
| 1777883021 | 8.33° C | 47% | 1013.1 hPa | 0 mm | - | - | - |
| 1777882118 | 7.78° C | 50% | 1013.2 hPa | 0 mm | - | - | - |
| 1777881215 | 8.33° C | 46% | 1013.3 hPa | 0 mm | - | - | - |
| 1777880312 | 8.33° C | 46% | 1013.5 hPa | 0 mm | - | - | - |
| 1777879409 | 8.33° C | 46% | 1012.7 hPa | 0 mm | - | - | - |
| 1777878506 | 8.33° C | 46% | 1012.7 hPa | 0 mm | - | - | - |
| 1777877603 | 8.89° C | 44% | 1013 hPa | 0 mm | - | - | - |
| 1777876700 | 8.89° C | 44% | 1012.9 hPa | 0 mm | - | - | - |
| 1777875797 | 8.89° C | 44% | 1013 hPa | 0 mm | - | - | - |
| 1777874895 | 8.89° C | 44% | 1013 hPa | 0 mm | - | - | - |
| 1777873992 | 8.89° C | 44% | 1013.1 hPa | 0 mm | - | - | - |
| 1777873089 | 8.89° C | 43% | 1013.1 hPa | 0 mm | - | - | - |
| 1777872186 | 9.44° C | 43% | 1013.1 hPa | 0 mm | - | - | - |
| 1777871283 | 9.44° C | 41% | 1013.1 hPa | 0 mm | - | - | - |
| 1777870380 | 10° C | 40% | 1013 hPa | 0 mm | - | - | - |
* Rain since midnight (hover to see other rain measurements)
** Current wind speed in m/s (hover to see current wind gust speed)